sensor_id;sensor_type;location;lat;lon;timestamp;pressure;altitude;pressure_sealevel;temperature;humidity
74542;BME280;63015;45.378;20.360;2023-07-13T00:01:46;100464.09;;;26.91;58.57
74542;BME280;63015;45.378;20.360;2023-07-13T00:03:49;100461.13;;;26.83;59.32
74542;BME280;63015;45.378;20.360;2023-07-13T00:05:57;100455.22;;;26.78;60.68
74542;BME280;63015;45.378;20.360;2023-07-13T00:07:59;100462.38;;;26.78;59.44
74542;BME280;63015;45.378;20.360;2023-07-13T00:09:59;100458.19;;;26.73;59.70
74542;BME280;63015;45.378;20.360;2023-07-13T00:12:00;100457.34;;;26.73;59.43
74542;BME280;63015;45.378;20.360;2023-07-13T00:14:01;100451.13;;;26.72;59.26
74542;BME280;63015;45.378;20.360;2023-07-13T00:16:02;100449.59;;;26.68;59.65
74542;BME280;63015;45.378;20.360;2023-07-13T00:18:02;100450.38;;;26.70;59.51
74542;BME280;63015;45.378;20.360;2023-07-13T00:20:03;100450.19;;;26.73;59.28
74542;BME280;63015;45.378;20.360;2023-07-13T00:22:04;100455.53;;;26.73;59.08
74542;BME280;63015;45.378;20.360;2023-07-13T00:24:06;100455.41;;;26.75;58.69
74542;BME280;63015;45.378;20.360;2023-07-13T00:26:09;100456.47;;;26.72;58.57
74542;BME280;63015;45.378;20.360;2023-07-13T00:28:12;100460.09;;;26.71;58.77
74542;BME280;63015;45.378;20.360;2023-07-13T00:30:13;100462.69;;;26.73;58.47
74542;BME280;63015;45.378;20.360;2023-07-13T00:32:13;100465.44;;;26.71;58.37
74542;BME280;63015;45.378;20.360;2023-07-13T00:34:14;100456.34;;;26.61;58.67
74542;BME280;63015;45.378;20.360;2023-07-13T00:36:15;100456.34;;;26.61;59.00
74542;BME280;63015;45.378;20.360;2023-07-13T00:38:16;100465.63;;;26.55;59.22
74542;BME280;63015;45.378;20.360;2023-07-13T00:40:17;100463.56;;;26.46;59.71
74542;BME280;63015;45.378;20.360;2023-07-13T00:42:19;100449.56;;;26.42;59.86
74542;BME280;63015;45.378;20.360;2023-07-13T00:44:20;100452.13;;;26.44;59.48
74542;BME280;63015;45.378;20.360;2023-07-13T00:46:31;100447.66;;;26.45;59.68
74542;BME280;63015;45.378;20.360;2023-07-13T00:48:34;100444.44;;;26.39;59.90
74542;BME280;63015;45.378;20.360;2023-07-13T00:50:38;100437.50;;;26.37;59.70
74542;BME280;63015;45.378;20.360;2023-07-13T00:52:43;100441.84;;;26.38;60.06
74542;BME280;63015;45.378;20.360;2023-07-13T00:54:46;100435.66;;;26.37;60.03
74542;BME280;63015;45.378;20.360;2023-07-13T00:56:49;100439.50;;;26.33;59.91
74542;BME280;63015;45.378;20.360;2023-07-13T00:58:50;100441.22;;;26.34;60.21
74542;BME280;63015;45.378;20.360;2023-07-13T01:00:52;100434.88;;;26.35;60.05
74542;BME280;63015;45.378;20.360;2023-07-13T01:02:53;100442.91;;;26.35;60.12
74542;BME280;63015;45.378;20.360;2023-07-13T01:04:54;100443.00;;;26.34;60.19
74542;BME280;63015;45.378;20.360;2023-07-13T01:06:55;100437.88;;;26.31;60.47
74542;BME280;63015;45.378;20.360;2023-07-13T01:08:57;100448.22;;;26.22;60.65
74542;BME280;63015;45.378;20.360;2023-07-13T01:10:59;100437.44;;;26.24;60.63
74542;BME280;63015;45.378;20.360;2023-07-13T01:12:59;100446.53;;;26.21;60.66
74542;BME280;63015;45.378;20.360;2023-07-13T01:15:01;100447.59;;;26.19;60.47
74542;BME280;63015;45.378;20.360;2023-07-13T01:17:01;100442.25;;;26.19;60.72
74542;BME280;63015;45.378;20.360;2023-07-13T01:19:14;100446.81;;;26.17;61.34
74542;BME280;63015;45.378;20.360;2023-07-13T01:21:19;100444.97;;;26.17;60.75
74542;BME280;63015;45.378;20.360;2023-07-13T01:23:20;100438.91;;;26.15;60.69
74542;BME280;63015;45.378;20.360;2023-07-13T01:25:22;100434.63;;;26.13;60.58
74542;BME280;63015;45.378;20.360;2023-07-13T01:27:25;100437.59;;;26.08;61.28
74542;BME280;63015;45.378;20.360;2023-07-13T01:29:26;100426.19;;;26.06;60.89
74542;BME280;63015;45.378;20.360;2023-07-13T01:31:26;100429.78;;;26.05;60.83
74542;BME280;63015;45.378;20.360;2023-07-13T01:33:27;100428.34;;;25.99;60.80
74542;BME280;63015;45.378;20.360;2023-07-13T01:35:28;100428.16;;;26.02;60.76
74542;BME280;63015;45.378;20.360;2023-07-13T01:37:28;100428.16;;;26.02;60.49
74542;BME280;63015;45.378;20.360;2023-07-13T01:39:33;100431.88;;;26.00;60.85
74542;BME280;63015;45.378;20.360;2023-07-13T01:41:34;100419.38;;;26.00;60.77
74542;BME280;63015;45.378;20.360;2023-07-13T01:43:34;100408.47;;;25.90;61.03
74542;BME280;63015;45.378;20.360;2023-07-13T01:45:35;100418.25;;;25.90;61.10
74542;BME280;63015;45.378;20.360;2023-07-13T01:47:36;100411.72;;;25.81;61.07
74542;BME280;63015;45.378;20.360;2023-07-13T01:49:37;100407.25;;;25.82;61.45
74542;BME280;63015;45.378;20.360;2023-07-13T01:51:38;100420.59;;;25.82;61.11
74542;BME280;63015;45.378;20.360;2023-07-13T01:53:38;100414.03;;;25.73;61.92
74542;BME280;63015;45.378;20.360;2023-07-13T01:55:39;100410.41;;;25.74;61.94
74542;BME280;63015;45.378;20.360;2023-07-13T01:57:40;100402.31;;;25.75;61.51
74542;BME280;63015;45.378;20.360;2023-07-13T01:59:41;100401.53;;;25.73;62.24
74542;BME280;63015;45.378;20.360;2023-07-13T02:01:41;100404.41;;;25.70;62.38
74542;BME280;63015;45.378;20.360;2023-07-13T02:03:42;100404.53;;;25.69;62.42
74542;BME280;63015;45.378;20.360;2023-07-13T02:05:43;100402.13;;;25.64;63.15
74542;BME280;63015;45.378;20.360;2023-07-13T02:07:43;100399.47;;;25.64;63.68
74542;BME280;63015;45.378;20.360;2023-07-13T02:09:44;100403.28;;;25.60;63.82
74542;BME280;63015;45.378;20.360;2023-07-13T02:11:44;100398.91;;;25.59;63.87
74542;BME280;63015;45.378;20.360;2023-07-13T02:13:45;100400.63;;;25.60;63.97
74542;BME280;63015;45.378;20.360;2023-07-13T02:15:46;100403.00;;;25.65;63.47
74542;BME280;63015;45.378;20.360;2023-07-13T02:17:46;100398.53;;;25.65;63.44
74542;BME280;63015;45.378;20.360;2023-07-13T02:19:47;100395.97;;;25.64;63.54
74542;BME280;63015;45.378;20.360;2023-07-13T02:21:47;100397.56;;;25.66;63.28
74542;BME280;63015;45.378;20.360;2023-07-13T02:23:49;100393.56;;;25.59;64.04
74542;BME280;63015;45.378;20.360;2023-07-13T02:25:55;100399.47;;;25.64;63.72
74542;BME280;63015;45.378;20.360;2023-07-13T02:27:56;100399.38;;;25.66;63.67
74542;BME280;63015;45.378;20.360;2023-07-13T02:29:56;100391.69;;;25.61;63.52
74542;BME280;63015;45.378;20.360;2023-07-13T02:31:57;100394.34;;;25.61;63.40
74542;BME280;63015;45.378;20.360;2023-07-13T02:33:58;100403.41;;;25.58;63.52
74542;BME280;63015;45.378;20.360;2023-07-13T02:35:58;100394.72;;;25.55;63.47
74542;BME280;63015;45.378;20.360;2023-07-13T02:37:59;100392.16;;;25.53;63.83
74542;BME280;63015;45.378;20.360;2023-07-13T02:39:59;100393.78;;;25.56;63.34
74542;BME280;63015;45.378;20.360;2023-07-13T02:42:00;100390.34;;;25.54;63.21
74542;BME280;63015;45.378;20.360;2023-07-13T02:44:02;100393.78;;;25.56;63.55
74542;BME280;63015;45.378;20.360;2023-07-13T02:46:06;100387.69;;;25.54;63.51
74542;BME280;63015;45.378;20.360;2023-07-13T02:48:10;100380.06;;;25.48;63.88
74542;BME280;63015;45.378;20.360;2023-07-13T02:50:10;100379.00;;;25.50;63.53
74542;BME280;63015;45.378;20.360;2023-07-13T02:52:11;100388.72;;;25.51;63.28
74542;BME280;63015;45.378;20.360;2023-07-13T02:54:11;100383.13;;;25.56;62.95
74542;BME280;63015;45.378;20.360;2023-07-13T02:56:14;100393.88;;;25.54;63.12
74542;BME280;63015;45.378;20.360;2023-07-13T02:58:14;100389.41;;;25.55;63.04
74542;BME280;63015;45.378;20.360;2023-07-13T03:00:17;100389.28;;;25.56;62.95
74542;BME280;63015;45.378;20.360;2023-07-13T03:02:18;100391.22;;;25.54;63.29
74542;BME280;63015;45.378;20.360;2023-07-13T03:04:19;100396.63;;;25.53;63.46
74542;BME280;63015;45.378;20.360;2023-07-13T03:06:20;100397.69;;;25.50;63.17
74542;BME280;63015;45.378;20.360;2023-07-13T03:08:25;100400.66;;;25.46;63.43
74542;BME280;63015;45.378;20.360;2023-07-13T03:10:27;100401.06;;;25.39;64.14
74542;BME280;63015;45.378;20.360;2023-07-13T03:12:28;100395.13;;;25.49;63.16
74542;BME280;63015;45.378;20.360;2023-07-13T03:14:29;100404.75;;;25.51;63.31
74542;BME280;63015;45.378;20.360;2023-07-13T03:16:31;100400.91;;;25.55;63.26
74542;BME280;63015;45.378;20.360;2023-07-13T03:18:31;100396.72;;;25.51;63.35
74542;BME280;63015;45.378;20.360;2023-07-13T03:20:36;100404.06;;;25.48;63.30
74542;BME280;63015;45.378;20.360;2023-07-13T03:22:37;100410.56;;;25.43;63.85
74542;BME280;63015;45.378;20.360;2023-07-13T03:24:37;100411.13;;;25.49;63.51
74542;BME280;63015;45.378;20.360;2023-07-13T03:26:39;100408.66;;;25.46;64.00
74542;BME280;63015;45.378;20.360;2023-07-13T03:28:40;100409.22;;;25.51;63.90
74542;BME280;63015;45.378;20.360;2023-07-13T03:30:43;100411.91;;;25.51;63.75
74542;BME280;63015;45.378;20.360;2023-07-13T03:32:44;100409.22;;;25.51;63.53
74542;BME280;63015;45.378;20.360;2023-07-13T03:34:44;100415.31;;;25.53;63.69
74542;BME280;63015;45.378;20.360;2023-07-13T03:36:47;100413.50;;;25.53;64.03
74542;BME280;63015;45.378;20.360;2023-07-13T03:38:53;100414.81;;;25.60;63.86
74542;BME280;63015;45.378;20.360;2023-07-13T03:40:57;100413.56;;;25.66;63.25
74542;BME280;63015;45.378;20.360;2023-07-13T03:42:58;100411.31;;;25.60;63.75
74542;BME280;63015;45.378;20.360;2023-07-13T03:44:59;100412.91;;;25.63;63.72
74542;BME280;63015;45.378;20.360;2023-07-13T03:46:59;100418.16;;;25.64;64.03
74542;BME280;63015;45.378;20.360;2023-07-13T03:49:01;100407.22;;;25.54;64.23
74542;BME280;63015;45.378;20.360;2023-07-13T03:51:02;100406.25;;;25.55;64.34
74542;BME280;63015;45.378;20.360;2023-07-13T03:53:04;100406.91;;;25.59;64.18
74542;BME280;63015;45.378;20.360;2023-07-13T03:55:05;100394.34;;;25.61;64.29
74542;BME280;63015;45.378;20.360;2023-07-13T03:57:08;100391.19;;;25.69;63.74
74542;BME280;63015;45.378;20.360;2023-07-13T03:59:10;100413.81;;;25.76;63.41
74542;BME280;63015;45.378;20.360;2023-07-13T04:01:11;100412.25;;;25.86;63.28
74542;BME280;63015;45.378;20.360;2023-07-13T04:03:13;100414.25;;;25.97;62.70
74542;BME280;63015;45.378;20.360;2023-07-13T04:05:13;100405.25;;;26.13;62.22
74542;BME280;63015;45.378;20.360;2023-07-13T04:07:14;100402.66;;;26.51;61.44
74542;BME280;63015;45.378;20.360;2023-07-13T04:09:15;100404.75;;;26.73;60.80
74542;BME280;63015;45.378;20.360;2023-07-13T04:11:18;100404.53;;;27.15;59.70
74542;BME280;63015;45.378;20.360;2023-07-13T04:13:18;100413.75;;;27.61;57.82
74542;BME280;63015;45.378;20.360;2023-07-13T04:15:20;100417.72;;;27.93;57.38
74542;BME280;63015;45.378;20.360;2023-07-13T04:17:20;100406.25;;;27.90;57.16
74542;BME280;63015;45.378;20.360;2023-07-13T04:19:21;100418.44;;;27.70;57.76
74542;BME280;63015;45.378;20.360;2023-07-13T04:21:22;100410.50;;;27.69;58.37
74542;BME280;63015;45.378;20.360;2023-07-13T04:23:22;100411.28;;;27.71;57.79
74542;BME280;63015;45.378;20.360;2023-07-13T04:25:23;100408.72;;;27.69;58.23
74542;BME280;63015;45.378;20.360;2023-07-13T04:27:23;100406.56;;;27.75;57.98
74542;BME280;63015;45.378;20.360;2023-07-13T04:29:24;100409.75;;;27.80;57.79
74542;BME280;63015;45.378;20.360;2023-07-13T04:31:25;100411.03;;;27.74;57.94
74542;BME280;63015;45.378;20.360;2023-07-13T04:33:26;100404.91;;;27.85;57.76
74542;BME280;63015;45.378;20.360;2023-07-13T04:35:27;100400.34;;;27.98;57.38
74542;BME280;63015;45.378;20.360;2023-07-13T04:37:28;100393.72;;;27.91;57.50
74542;BME280;63015;45.378;20.360;2023-07-13T04:39:29;100389.81;;;27.84;58.08
74542;BME280;63015;45.378;20.360;2023-07-13T04:41:30;100379.81;;;27.86;58.24
74542;BME280;63015;45.378;20.360;2023-07-13T04:43:31;100383.00;;;27.91;57.84
74542;BME280;63015;45.378;20.360;2023-07-13T04:45:32;100393.06;;;28.00;57.78
74542;BME280;63015;45.378;20.360;2023-07-13T04:47:32;100403.56;;;28.03;57.76
74542;BME280;63015;45.378;20.360;2023-07-13T04:49:33;100414.56;;;27.99;58.30
74542;BME280;63015;45.378;20.360;2023-07-13T04:51:34;100413.88;;;28.32;57.79
74542;BME280;63015;45.378;20.360;2023-07-13T04:53:34;100423.94;;;28.42;57.25
74542;BME280;63015;45.378;20.360;2023-07-13T04:55:35;100422.84;;;28.55;57.50
74542;BME280;63015;45.378;20.360;2023-07-13T04:57:36;100426.34;;;28.69;57.54
74542;BME280;63015;45.378;20.360;2023-07-13T04:59:37;100433.69;;;28.90;56.84
74542;BME280;63015;45.378;20.360;2023-07-13T05:01:37;100443.94;;;28.96;57.10
74542;BME280;63015;45.378;20.360;2023-07-13T05:03:38;100443.56;;;29.00;56.81
74542;BME280;63015;45.378;20.360;2023-07-13T05:05:38;100451.63;;;29.12;56.69
74542;BME280;63015;45.378;20.360;2023-07-13T05:07:39;100453.56;;;29.21;56.46
74542;BME280;63015;45.378;20.360;2023-07-13T05:09:40;100444.94;;;29.17;56.69
74542;BME280;63015;45.378;20.360;2023-07-13T05:11:40;100456.63;;;29.05;56.64
74542;BME280;63015;45.378;20.360;2023-07-13T05:13:41;100459.31;;;29.16;56.58
74542;BME280;63015;45.378;20.360;2023-07-13T05:15:41;100474.81;;;29.24;56.49
74542;BME280;63015;45.378;20.360;2023-07-13T05:17:42;100471.63;;;29.08;56.80
74542;BME280;63015;45.378;20.360;2023-07-13T05:19:42;100482.28;;;28.85;57.13
74542;BME280;63015;45.378;20.360;2023-07-13T05:21:43;100492.28;;;28.71;57.37
74542;BME280;63015;45.378;20.360;2023-07-13T05:23:44;100494.81;;;28.73;57.64
74542;BME280;63015;45.378;20.360;2023-07-13T05:25:44;100500.34;;;28.83;57.29
74542;BME280;63015;45.378;20.360;2023-07-13T05:27:45;100502.50;;;28.66;57.62
74542;BME280;63015;45.378;20.360;2023-07-13T05:29:46;100482.16;;;28.75;57.80
74542;BME280;63015;45.378;20.360;2023-07-13T05:31:47;100474.16;;;28.98;57.27
74542;BME280;63015;45.378;20.360;2023-07-13T05:33:47;100456.41;;;29.31;56.87
74542;BME280;63015;45.378;20.360;2023-07-13T05:35:48;100435.19;;;29.39;56.71
74542;BME280;63015;45.378;20.360;2023-07-13T05:37:48;100424.53;;;29.26;56.64
74542;BME280;63015;45.378;20.360;2023-07-13T05:39:49;100432.22;;;29.19;56.67
74542;BME280;63015;45.378;20.360;2023-07-13T05:41:50;100453.34;;;29.58;56.01
74542;BME280;63015;45.378;20.360;2023-07-13T05:43:50;100492.63;;;29.82;55.64
74542;BME280;63015;45.378;20.360;2023-07-13T05:45:53;100498.09;;;30.03;55.20
74542;BME280;63015;45.378;20.360;2023-07-13T05:47:54;100476.47;;;30.37;54.55
74542;BME280;63015;45.378;20.360;2023-07-13T05:49:54;100459.81;;;30.55;54.47
74542;BME280;63015;45.378;20.360;2023-07-13T05:51:55;100461.66;;;30.75;53.85
74542;BME280;63015;45.378;20.360;2023-07-13T05:53:56;100487.31;;;31.00;53.38
74542;BME280;63015;45.378;20.360;2023-07-13T05:55:57;100479.09;;;31.23;53.22
74542;BME280;63015;45.378;20.360;2023-07-13T05:57:58;100465.94;;;31.30;52.44
74542;BME280;63015;45.378;20.360;2023-07-13T05:59:59;100477.78;;;31.48;51.91
74542;BME280;63015;45.378;20.360;2023-07-13T06:02:00;100493.34;;;31.76;51.21
74542;BME280;63015;45.378;20.360;2023-07-13T06:04:00;100499.97;;;32.12;50.16
74542;BME280;63015;45.378;20.360;2023-07-13T06:06:01;100500.00;;;32.32;49.49
74542;BME280;63015;45.378;20.360;2023-07-13T06:08:02;100505.81;;;32.57;48.89
74542;BME280;63015;45.378;20.360;2023-07-13T06:10:02;100508.22;;;32.60;48.68
74542;BME280;63015;45.378;20.360;2023-07-13T06:12:03;100512.78;;;32.69;47.95
74542;BME280;63015;45.378;20.360;2023-07-13T06:14:04;100515.59;;;32.97;47.79
74542;BME280;63015;45.378;20.360;2023-07-13T06:16:05;100509.38;;;33.24;47.33
74542;BME280;63015;45.378;20.360;2023-07-13T06:18:06;100513.34;;;33.40;46.85
74542;BME280;63015;45.378;20.360;2023-07-13T06:20:07;100529.28;;;33.33;47.07
74542;BME280;63015;45.378;20.360;2023-07-13T06:22:08;100531.56;;;33.66;46.39
74542;BME280;63015;45.378;20.360;2023-07-13T06:24:08;100536.78;;;33.77;45.68
74542;BME280;63015;45.378;20.360;2023-07-13T06:26:10;100525.41;;;33.83;45.10
74542;BME280;63015;45.378;20.360;2023-07-13T06:28:11;100523.19;;;33.69;44.15
74542;BME280;63015;45.378;20.360;2023-07-13T06:30:11;100530.22;;;33.04;44.83
74542;BME280;63015;45.378;20.360;2023-07-13T06:32:12;100528.75;;;33.20;44.94
74542;BME280;63015;45.378;20.360;2023-07-13T06:34:13;100538.75;;;32.90;45.19
74542;BME280;63015;45.378;20.360;2023-07-13T06:36:14;100546.44;;;32.75;46.15
74542;BME280;63015;45.378;20.360;2023-07-13T06:38:15;100549.81;;;32.47;46.13
74542;BME280;63015;45.378;20.360;2023-07-13T06:40:15;100537.16;;;32.68;45.76
74542;BME280;63015;45.378;20.360;2023-07-13T06:42:16;100531.78;;;32.38;45.73
74542;BME280;63015;45.378;20.360;2023-07-13T06:44:17;100536.63;;;32.64;45.15
74542;BME280;63015;45.378;20.360;2023-07-13T06:46:21;100533.09;;;32.73;44.10
74542;BME280;63015;45.378;20.360;2023-07-13T06:48:22;100518.31;;;33.44;43.25
74542;BME280;63015;45.378;20.360;2023-07-13T06:50:23;100518.41;;;33.53;42.32
74542;BME280;63015;45.378;20.360;2023-07-13T06:52:23;100520.97;;;34.10;41.37
74542;BME280;63015;45.378;20.360;2023-07-13T06:54:24;100520.50;;;33.69;40.73
74542;BME280;63015;45.378;20.360;2023-07-13T06:56:25;100508.22;;;33.47;39.95
74542;BME280;63015;45.378;20.360;2023-07-13T06:58:25;100508.00;;;33.58;40.77
74542;BME280;63015;45.378;20.360;2023-07-13T07:00:26;100511.72;;;33.57;39.96
74542;BME280;63015;45.378;20.360;2023-07-13T07:02:27;100519.69;;;33.58;40.96
74542;BME280;63015;45.378;20.360;2023-07-13T07:04:27;100518.22;;;33.26;41.44
74542;BME280;63015;45.378;20.360;2023-07-13T07:06:28;100508.97;;;33.39;41.10
74542;BME280;63015;45.378;20.360;2023-07-13T07:08:28;100502.34;;;34.25;40.63
74542;BME280;63015;45.378;20.360;2023-07-13T07:10:30;100507.25;;;34.21;40.67
74542;BME280;63015;45.378;20.360;2023-07-13T07:12:31;100504.19;;;33.78;40.73
74542;BME280;63015;45.378;20.360;2023-07-13T07:14:32;100514.44;;;33.85;40.61
74542;BME280;63015;45.378;20.360;2023-07-13T07:16:34;100513.31;;;34.33;39.13
74542;BME280;63015;45.378;20.360;2023-07-13T07:18:35;100502.06;;;34.64;39.31
74542;BME280;63015;45.378;20.360;2023-07-13T07:20:36;100496.63;;;34.38;39.12
74542;BME280;63015;45.378;20.360;2023-07-13T07:22:36;100497.28;;;34.58;38.93
74542;BME280;63015;45.378;20.360;2023-07-13T07:24:37;100490.81;;;34.51;38.86
74542;BME280;63015;45.378;20.360;2023-07-13T07:26:37;100489.50;;;34.37;38.73
74542;BME280;63015;45.378;20.360;2023-07-13T07:28:38;100489.41;;;34.47;39.54
74542;BME280;63015;45.378;20.360;2023-07-13T07:30:42;100490.13;;;34.49;38.13
74542;BME280;63015;45.378;20.360;2023-07-13T07:32:43;100500.16;;;34.38;38.54
74542;BME280;63015;45.378;20.360;2023-07-13T07:34:44;100506.69;;;34.00;39.03
74542;BME280;63015;45.378;20.360;2023-07-13T07:36:44;100490.00;;;33.76;40.19
74542;BME280;63015;45.378;20.360;2023-07-13T07:38:45;100493.63;;;34.31;39.02
74542;BME280;63015;45.378;20.360;2023-07-13T07:40:46;100484.13;;;34.27;37.84
74542;BME280;63015;45.378;20.360;2023-07-13T07:42:46;100485.69;;;34.48;38.07
74542;BME280;63015;45.378;20.360;2023-07-13T07:44:47;100484.72;;;34.93;37.18
74542;BME280;63015;45.378;20.360;2023-07-13T07:46:47;100485.75;;;34.92;37.15
74542;BME280;63015;45.378;20.360;2023-07-13T07:48:48;100478.00;;;34.97;37.41
74542;BME280;63015;45.378;20.360;2023-07-13T07:50:49;100478.63;;;34.91;37.55
74542;BME280;63015;45.378;20.360;2023-07-13T07:52:49;100477.97;;;34.17;38.70
74542;BME280;63015;45.378;20.360;2023-07-13T07:54:50;100475.47;;;34.59;38.56
74542;BME280;63015;45.378;20.360;2023-07-13T07:56:51;100478.50;;;35.27;37.19
74542;BME280;63015;45.378;20.360;2023-07-13T07:58:51;100473.53;;;35.22;36.88
74542;BME280;63015;45.378;20.360;2023-07-13T08:00:52;100473.38;;;34.17;37.83
74542;BME280;63015;45.378;20.360;2023-07-13T08:02:52;100466.16;;;35.33;36.90
74542;BME280;63015;45.378;20.360;2023-07-13T08:04:53;100458.44;;;35.97;35.70
74542;BME280;63015;45.378;20.360;2023-07-13T08:06:54;100458.09;;;35.15;35.69
74542;BME280;63015;45.378;20.360;2023-07-13T08:08:56;100464.16;;;34.38;37.50
74542;BME280;63015;45.378;20.360;2023-07-13T08:10:57;100466.72;;;35.36;36.87
74542;BME280;63015;45.378;20.360;2023-07-13T08:12:57;100455.91;;;35.87;36.71
74542;BME280;63015;45.378;20.360;2023-07-13T08:14:58;100456.28;;;36.17;36.08
74542;BME280;63015;45.378;20.360;2023-07-13T08:17:00;100460.84;;;36.33;34.98
74542;BME280;63015;45.378;20.360;2023-07-13T08:19:01;100459.84;;;36.26;34.41
74542;BME280;63015;45.378;20.360;2023-07-13T08:21:05;100462.06;;;36.64;34.39
74542;BME280;63015;45.378;20.360;2023-07-13T08:23:09;100454.09;;;36.46;34.07
74542;BME280;63015;45.378;20.360;2023-07-13T08:25:10;100454.31;;;37.17;34.54
74542;BME280;63015;45.378;20.360;2023-07-13T08:27:11;100449.31;;;36.07;35.88
74542;BME280;63015;45.378;20.360;2023-07-13T08:29:12;100446.28;;;36.26;34.63
74542;BME280;63015;45.378;20.360;2023-07-13T08:31:12;100447.81;;;36.45;34.50
74542;BME280;63015;45.378;20.360;2023-07-13T08:33:18;100446.09;;;36.28;34.67
74542;BME280;63015;45.378;20.360;2023-07-13T08:35:19;100447.66;;;36.55;34.21
74542;BME280;63015;45.378;20.360;2023-07-13T08:37:20;100437.63;;;36.06;34.29
74542;BME280;63015;45.378;20.360;2023-07-13T08:39:20;100442.72;;;36.83;34.16
74542;BME280;63015;45.378;20.360;2023-07-13T08:41:21;100451.53;;;36.69;33.65
74542;BME280;63015;45.378;20.360;2023-07-13T08:43:28;100445.66;;;37.22;32.48
74542;BME280;63015;45.378;20.360;2023-07-13T08:45:44;100445.06;;;36.86;33.14
74542;BME280;63015;45.378;20.360;2023-07-13T08:47:53;100455.13;;;36.45;33.08
74542;BME280;63015;45.378;20.360;2023-07-13T08:49:54;100454.09;;;36.46;33.79
74542;BME280;63015;45.378;20.360;2023-07-13T08:52:05;100454.97;;;37.67;32.39
74542;BME280;63015;45.378;20.360;2023-07-13T08:54:40;100451.19;;;37.76;31.47
74542;BME280;63015;45.378;20.360;2023-07-13T08:56:38;100453.00;;;38.15;31.64
74542;BME280;63015;45.378;20.360;2023-07-13T08:58:40;100447.84;;;38.21;31.08
74542;BME280;63015;45.378;20.360;2023-07-13T09:02:57;100454.41;;;36.59;33.36
74542;BME280;63015;45.378;20.360;2023-07-13T09:05:03;100452.03;;;37.77;32.36
74542;BME280;63015;45.378;20.360;2023-07-13T09:07:27;100456.13;;;38.65;30.82
74542;BME280;63015;45.378;20.360;2023-07-13T09:10:04;100450.69;;;38.65;30.86
74542;BME280;63015;45.378;20.360;2023-07-13T09:16:35;100445.75;;;36.97;33.21
74542;BME280;63015;45.378;20.360;2023-07-13T09:18:45;100457.38;;;37.62;32.06
74542;BME280;63015;45.378;20.360;2023-07-13T09:20:54;100460.66;;;36.10;33.75
74542;BME280;63015;45.378;20.360;2023-07-13T09:22:59;100455.09;;;36.78;33.60
74542;BME280;63015;45.378;20.360;2023-07-13T09:27:30;100450.44;;;38.14;32.18
74542;BME280;63015;45.378;20.360;2023-07-13T09:29:34;100448.88;;;38.43;31.83
74542;BME280;63015;45.378;20.360;2023-07-13T09:31:54;100450.56;;;38.82;30.08
74542;BME280;63015;45.378;20.360;2023-07-13T09:33:57;100442.97;;;39.37;30.13
74542;BME280;63015;45.378;20.360;2023-07-13T09:35:58;100445.91;;;39.72;30.07
74542;BME280;63015;45.378;20.360;2023-07-13T09:38:11;100451.97;;;38.78;30.94
74542;BME280;63015;45.378;20.360;2023-07-13T09:42:59;100456.94;;;37.90;30.65
74542;BME280;63015;45.378;20.360;2023-07-13T09:45:01;100452.00;;;37.54;32.00
74542;BME280;63015;45.378;20.360;2023-07-13T09:47:29;100448.69;;;37.27;31.76
74542;BME280;63015;45.378;20.360;2023-07-13T09:49:35;100454.25;;;37.81;31.66
74542;BME280;63015;45.378;20.360;2023-07-13T09:51:37;100447.94;;;37.49;31.49
74542;BME280;63015;45.378;20.360;2023-07-13T09:53:44;100452.63;;;38.19;31.14
74542;BME280;63015;45.378;20.360;2023-07-13T09:55:46;100452.72;;;38.33;30.79
74542;BME280;63015;45.378;20.360;2023-07-13T09:57:47;100445.22;;;38.74;30.39
74542;BME280;63015;45.378;20.360;2023-07-13T09:59:51;100448.00;;;38.27;30.60
74542;BME280;63015;45.378;20.360;2023-07-13T10:01:52;100442.50;;;38.74;30.19
74542;BME280;63015;45.378;20.360;2023-07-13T10:03:53;100439.69;;;38.97;29.61
74542;BME280;63015;45.378;20.360;2023-07-13T10:05:54;100441.75;;;38.80;29.78
74542;BME280;63015;45.378;20.360;2023-07-13T10:08:01;100441.16;;;39.14;29.67
74542;BME280;63015;45.378;20.360;2023-07-13T10:10:01;100438.53;;;39.51;28.83
74542;BME280;63015;45.378;20.360;2023-07-13T10:12:03;100443.03;;;39.74;29.38
74542;BME280;63015;45.378;20.360;2023-07-13T10:14:22;100440.59;;;39.64;29.80
74542;BME280;63015;45.378;20.360;2023-07-13T10:16:31;100435.06;;;39.42;29.70
74542;BME280;63015;45.378;20.360;2023-07-13T10:18:56;100436.31;;;39.10;30.22
74542;BME280;63015;45.378;20.360;2023-07-13T10:21:13;100441.03;;;37.70;31.66
74542;BME280;63015;45.378;20.360;2023-07-13T10:23:21;100439.81;;;38.65;30.46
74542;BME280;63015;45.378;20.360;2023-07-13T10:25:26;100440.72;;;38.58;30.53
74542;BME280;63015;45.378;20.360;2023-07-13T10:27:34;100439.13;;;36.99;32.09
74542;BME280;63015;45.378;20.360;2023-07-13T10:29:36;100431.50;;;36.04;33.50
74542;BME280;63015;45.378;20.360;2023-07-13T10:31:38;100427.56;;;37.54;31.75
74542;BME280;63015;45.378;20.360;2023-07-13T10:33:39;100424.34;;;38.28;31.24
74542;BME280;63015;45.378;20.360;2023-07-13T10:35:43;100426.16;;;38.74;31.06
74542;BME280;63015;45.378;20.360;2023-07-13T10:38:11;100422.00;;;38.02;30.83
74542;BME280;63015;45.378;20.360;2023-07-13T10:40:14;100421.84;;;37.72;31.35
74542;BME280;63015;45.378;20.360;2023-07-13T10:42:28;100420.41;;;37.53;30.98
74542;BME280;63015;45.378;20.360;2023-07-13T10:44:32;100420.72;;;37.89;31.23